createdAt,value
2019-02-25T19:25:01.810Z,10.00
2019-02-25T19:27:33.250Z,9.70
2019-02-25T19:30:03.058Z,9.70
2019-02-25T19:32:51.273Z,9.60
2019-02-25T19:35:23.406Z,9.50
2019-02-25T19:37:51.379Z,9.40
2019-02-25T19:40:22.539Z,9.50
2019-02-25T19:42:52.202Z,9.40
2019-02-25T19:45:22.473Z,9.30
2019-02-25T19:47:51.465Z,9.30
2019-02-25T19:50:20.632Z,9.20
2019-02-25T19:52:49.581Z,9.10
2019-02-25T19:55:20.570Z,9.00
2019-02-25T19:57:49.391Z,8.90
2019-02-25T20:00:24.988Z,8.80
2019-02-25T20:02:53.233Z,8.70
2019-02-25T20:05:24.142Z,8.70
2019-02-25T20:07:54.758Z,8.60
2019-02-25T20:10:24.144Z,8.50
2019-02-25T20:12:53.612Z,8.40
2019-02-25T20:15:25.059Z,8.20
2019-02-25T20:17:55.153Z,8.20
2019-02-25T20:20:28.233Z,8.20
2019-02-25T20:22:57.903Z,8.10
2019-02-25T20:25:28.775Z,8.10
2019-02-25T20:27:59.845Z,8.20
2019-02-25T20:30:30.433Z,8.20
2019-02-25T20:33:01.283Z,8.00
2019-02-25T20:35:31.358Z,7.90
2019-02-25T20:38:01.062Z,7.90
2019-02-25T20:40:32.856Z,8.00
2019-02-25T20:43:03.077Z,7.80
2019-02-25T20:45:33.184Z,7.90
2019-02-25T20:48:02.944Z,7.80
2019-02-25T20:50:31.791Z,7.60
2019-02-25T20:53:03.662Z,7.50
2019-02-25T20:55:32.099Z,7.10
2019-02-25T20:58:02.068Z,6.80
2019-02-25T21:00:35.010Z,6.70
2019-02-25T21:03:01.882Z,6.60
2019-02-25T21:05:30.765Z,6.30
2019-02-25T21:08:00.034Z,6.20
2019-02-25T21:10:32.814Z,6.10
2019-02-25T21:13:02.251Z,6.00
2019-02-25T21:15:33.573Z,6.00
2019-02-25T21:18:04.710Z,6.00
2019-02-25T21:20:33.052Z,6.00
2019-02-25T21:23:05.257Z,6.10
2019-02-25T21:25:35.698Z,6.20
2019-02-25T21:28:04.969Z,6.20
2019-02-25T21:30:37.191Z,6.30
2019-02-25T21:33:05.364Z,6.20
2019-02-25T21:35:37.218Z,6.30
2019-02-25T21:38:05.001Z,6.30
2019-02-25T21:40:33.786Z,6.40
2019-02-25T21:43:02.561Z,6.20
2019-02-25T21:45:32.261Z,6.10
2019-02-25T21:48:04.183Z,6.10
2019-02-25T21:50:34.051Z,6.10
2019-02-25T21:53:04.895Z,6.00
2019-02-25T21:55:34.924Z,6.00
2019-02-25T21:58:04.931Z,6.00
2019-02-25T22:00:35.834Z,6.00
2019-02-25T22:03:08.223Z,5.90
2019-02-25T22:05:35.436Z,5.90
2019-02-25T22:08:06.355Z,5.90
2019-02-25T22:10:36.814Z,5.90
2019-02-25T22:13:08.700Z,5.70
2019-02-25T22:15:36.689Z,5.50
2019-02-25T22:18:08.639Z,5.40
2019-02-25T22:20:39.697Z,5.30
2019-02-25T22:23:08.080Z,5.10
2019-02-25T22:25:37.025Z,5.10
2019-02-25T22:28:07.603Z,5.00
2019-02-25T22:30:36.512Z,5.00
2019-02-25T22:33:07.110Z,4.90
2019-02-25T22:35:37.646Z,4.80
2019-02-25T22:38:06.446Z,4.60
2019-02-25T22:40:36.666Z,4.60
2019-02-25T22:43:05.749Z,4.50
2019-02-25T22:45:35.964Z,4.40
2019-02-25T22:48:05.143Z,4.40
2019-02-25T22:50:36.022Z,4.40
2019-02-25T22:53:06.794Z,4.40
2019-02-25T22:55:39.246Z,4.30
2019-02-25T22:58:08.147Z,4.20
2019-02-25T23:00:43.929Z,4.10
2019-02-25T23:03:15.259Z,4.10
2019-02-25T23:05:45.391Z,4.10
2019-02-25T23:08:15.626Z,4.10
2019-02-25T23:10:46.901Z,4.20
2019-02-25T23:13:17.778Z,4.20
2019-02-25T23:15:48.962Z,4.20
2019-02-25T23:18:21.512Z,4.20
2019-02-25T23:20:48.236Z,4.20
2019-02-25T23:23:18.548Z,4.30
2019-02-25T23:25:49.125Z,4.20
2019-02-25T23:28:20.553Z,4.10
2019-02-25T23:30:49.347Z,4.00
2019-02-25T23:33:21.286Z,4.00
2019-02-25T23:35:49.189Z,3.80
2019-02-25T23:38:19.360Z,3.70
2019-02-25T23:40:48.250Z,3.50
2019-02-25T23:43:18.871Z,3.50
2019-02-25T23:45:47.626Z,3.40
2019-02-25T23:48:16.854Z,3.40
2019-02-25T23:50:45.645Z,3.40
2019-02-25T23:53:14.431Z,3.30
2019-02-25T23:55:47.139Z,3.30
2019-02-25T23:58:14.689Z,3.30
